createdAt,value
2019-04-28T00:01:31.868Z,9.00
2019-04-28T00:04:03.374Z,9.00
2019-04-28T00:06:33.820Z,9.00
2019-04-28T00:09:04.949Z,9.10
2019-04-28T00:11:36.809Z,9.10
2019-04-28T00:14:08.474Z,9.10
2019-04-28T00:16:38.824Z,9.00
2019-04-28T00:19:10.972Z,9.00
2019-04-28T00:22:02.848Z,9.00
2019-04-28T00:24:43.640Z,9.00
2019-04-28T00:27:16.825Z,9.00
2019-04-28T00:29:47.072Z,9.00
2019-04-28T00:32:17.278Z,9.00
2019-04-28T00:34:47.491Z,9.00
2019-04-28T00:37:37.516Z,9.00
2019-04-28T00:40:10.987Z,9.00
2019-04-28T00:42:41.481Z,8.90
2019-04-28T00:45:13.032Z,8.90
2019-04-28T00:47:43.238Z,8.90
2019-04-28T00:50:13.940Z,8.90
2019-04-28T00:52:44.108Z,8.90
2019-04-28T00:55:14.353Z,9.00
2019-04-28T00:57:44.531Z,8.90
2019-04-28T01:00:16.567Z,8.90
2019-04-28T01:02:46.727Z,9.00
2019-04-28T01:05:17.142Z,8.90
2019-04-28T01:07:47.312Z,8.90
2019-04-28T01:10:17.880Z,8.90
2019-04-28T01:12:48.035Z,8.90
2019-04-28T01:15:49.661Z,8.80
2019-04-28T01:18:37.523Z,8.90
2019-04-28T01:21:07.728Z,8.80
2019-04-28T01:23:37.888Z,8.80
2019-04-28T01:26:09.864Z,8.80
2019-04-28T01:28:40.219Z,8.80
2019-04-28T01:31:29.447Z,8.80
2019-04-28T01:34:20.352Z,8.80
2019-04-28T01:36:51.725Z,8.80
2019-04-28T01:39:22.105Z,8.80
2019-04-28T01:41:52.380Z,8.80
2019-04-28T01:44:22.526Z,8.80
2019-04-28T01:46:52.705Z,8.80
2019-04-28T01:49:22.837Z,8.80
2019-04-28T01:52:01.283Z,8.80
2019-04-28T01:54:31.652Z,8.80
2019-04-28T01:57:02.082Z,8.70
2019-04-28T01:59:32.912Z,8.70
2019-04-28T02:02:03.104Z,8.80
2019-04-28T02:04:33.316Z,8.70
2019-04-28T02:07:03.551Z,8.70
2019-04-28T02:09:34.791Z,8.70
2019-04-28T02:12:05.403Z,8.70
2019-04-28T02:14:35.572Z,8.70
2019-04-28T02:17:05.951Z,8.70
2019-04-28T02:19:36.091Z,8.60
2019-04-28T02:22:29.949Z,8.60
2019-04-28T02:25:00.346Z,8.60
2019-04-28T02:27:31.303Z,8.60
2019-04-28T02:30:01.509Z,8.60
2019-04-28T02:32:33.695Z,8.60
2019-04-28T02:35:03.929Z,8.60
2019-04-28T02:37:34.253Z,8.60
2019-04-28T02:40:05.149Z,8.60
2019-04-28T02:42:35.364Z,8.60
2019-04-28T02:45:06.630Z,8.60
2019-04-28T02:47:36.777Z,8.60
2019-04-28T02:50:42.751Z,8.60
2019-04-28T02:53:21.133Z,8.60
2019-04-28T02:55:51.405Z,8.60
2019-04-28T02:58:22.563Z,8.60
2019-04-28T03:01:06.756Z,8.60
2019-04-28T03:03:24.825Z,8.60
2019-04-28T03:05:55.189Z,8.50
2019-04-28T03:08:25.432Z,8.50
2019-04-28T03:10:55.609Z,8.50
2019-04-28T03:13:25.763Z,8.50
2019-04-28T03:15:55.923Z,8.50
2019-04-28T03:18:26.059Z,8.50
2019-04-28T03:20:56.266Z,8.40
2019-04-28T03:23:26.407Z,8.50
2019-04-28T03:26:11.189Z,8.50
2019-04-28T03:28:50.689Z,8.40
2019-04-28T03:31:51.060Z,8.40
2019-04-28T03:34:03.859Z,8.40
2019-04-28T03:36:33.159Z,8.40
2019-04-28T03:39:04.647Z,8.40
2019-04-28T03:41:36.420Z,8.30
2019-04-28T03:44:06.585Z,8.30
2019-04-28T03:46:42.147Z,8.40
2019-04-28T03:49:31.558Z,8.40
2019-04-28T03:52:02.752Z,8.30
2019-04-28T03:54:32.899Z,8.30
2019-04-28T03:57:03.144Z,8.20
2019-04-28T03:59:33.280Z,8.30
2019-04-28T04:02:03.617Z,8.30
2019-04-28T04:04:34.825Z,8.30
2019-04-28T04:07:05.043Z,8.30
2019-04-28T04:09:43.416Z,8.30
2019-04-28T04:12:24.229Z,8.20
2019-04-28T04:15:16.080Z,8.20
2019-04-28T04:18:02.783Z,8.20
2019-04-28T04:20:32.904Z,8.20
2019-04-28T04:23:03.049Z,8.20
2019-04-28T04:25:33.217Z,8.20
2019-04-28T04:28:03.974Z,8.20
2019-04-28T04:30:34.436Z,8.20
2019-04-28T04:33:04.604Z,8.20
2019-04-28T04:35:34.773Z,8.20
2019-04-28T04:38:05.061Z,8.20
2019-04-28T04:40:35.206Z,8.10
2019-04-28T04:43:05.393Z,8.10
2019-04-28T04:45:35.584Z,8.10
2019-04-28T04:48:05.756Z,8.00
2019-04-28T04:50:35.940Z,8.00
2019-04-28T04:53:06.119Z,8.00
2019-04-28T04:55:36.292Z,8.00
2019-04-28T04:58:06.466Z,8.00
2019-04-28T05:00:53.196Z,8.00
2019-04-28T05:03:26.925Z,8.10
2019-04-28T05:05:57.083Z,8.10
2019-04-28T05:08:27.262Z,8.00
2019-04-28T05:10:57.415Z,8.10
2019-04-28T05:13:27.560Z,8.00
2019-04-28T05:15:59.716Z,8.00
2019-04-28T05:18:29.807Z,8.10
2019-04-28T05:21:00.055Z,8.10
2019-04-28T05:23:42.776Z,8.20
2019-04-28T05:26:12.962Z,8.20
2019-04-28T05:28:50.621Z,8.20
2019-04-28T05:31:20.644Z,8.30
2019-04-28T05:33:46.801Z,8.30
2019-04-28T05:36:16.958Z,8.40
2019-04-28T05:38:47.124Z,8.40
2019-04-28T05:41:17.273Z,8.40
2019-04-28T05:43:47.431Z,8.40
2019-04-28T05:46:19.644Z,8.40
2019-04-28T05:49:14.455Z,8.40
2019-04-28T05:51:47.067Z,8.50
2019-04-28T05:54:34.481Z,8.50
2019-04-28T05:57:35.811Z,8.60
2019-04-28T06:00:31.536Z,8.70
2019-04-28T06:03:02.664Z,8.60
2019-04-28T06:05:32.866Z,8.60
2019-04-28T06:08:24.745Z,8.60
2019-04-28T06:10:54.887Z,8.70
2019-04-28T06:13:25.071Z,8.70
2019-04-28T06:15:55.328Z,8.70
2019-04-28T06:18:25.516Z,8.70
2019-04-28T06:20:55.671Z,8.70
2019-04-28T06:23:25.848Z,8.90
2019-04-28T06:25:56.041Z,8.80
2019-04-28T06:28:26.193Z,8.80
2019-04-28T06:30:56.377Z,8.90
2019-04-28T06:33:26.617Z,8.90
2019-04-28T06:35:56.784Z,8.80
2019-04-28T06:38:26.982Z,8.90
2019-04-28T06:40:57.163Z,9.20
2019-04-28T06:43:27.332Z,9.20
2019-04-28T06:45:57.502Z,9.20
2019-04-28T06:48:27.668Z,9.10
2019-04-28T06:51:03.015Z,9.20
2019-04-28T06:53:33.204Z,9.10
2019-04-28T06:56:04.477Z,9.00
2019-04-28T06:58:34.669Z,9.20
2019-04-28T07:01:04.838Z,9.20
2019-04-28T07:03:35.003Z,9.10
2019-04-28T07:06:05.266Z,9.10
2019-04-28T07:08:35.424Z,9.30
2019-04-28T07:11:05.624Z,9.50
2019-04-28T07:13:35.983Z,9.70
2019-04-28T07:16:06.158Z,10.00
2019-04-28T07:18:36.359Z,10.30
2019-04-28T07:21:23.318Z,10.20
2019-04-28T07:23:53.478Z,10.10
2019-04-28T07:26:24.847Z,10.10
2019-04-28T07:28:54.998Z,10.20
2019-04-28T07:31:25.384Z,10.30
2019-04-28T07:33:55.587Z,10.30
2019-04-28T07:36:25.742Z,10.60
2019-04-28T07:38:55.914Z,11.10
2019-04-28T07:41:26.076Z,11.10
2019-04-28T07:43:56.261Z,10.90
2019-04-28T07:46:26.433Z,10.70
2019-04-28T07:48:56.618Z,10.40
2019-04-28T07:51:29.944Z,10.20
2019-04-28T07:54:04.935Z,10.40
2019-04-28T07:56:35.220Z,10.50
2019-04-28T07:59:05.480Z,10.80
2019-04-28T08:01:35.640Z,10.80
2019-04-28T08:04:05.841Z,10.70
2019-04-28T08:06:35.983Z,10.40
2019-04-28T08:09:09.483Z,10.40
2019-04-28T08:11:40.475Z,10.40
2019-04-28T08:14:10.675Z,10.30
2019-04-28T08:16:40.843Z,10.40
2019-04-28T08:19:11.037Z,10.80
2019-04-28T08:21:41.215Z,10.90
2019-04-28T08:24:11.480Z,11.00
2019-04-28T08:26:42.741Z,10.90
2019-04-28T08:29:13.038Z,10.90
2019-04-28T08:31:50.452Z,11.10
2019-04-28T08:34:21.169Z,11.10
2019-04-28T08:36:51.347Z,11.10
2019-04-28T08:39:23.492Z,11.40
2019-04-28T08:41:53.540Z,11.40
2019-04-28T08:44:23.699Z,11.10
2019-04-28T08:46:53.843Z,11.00
2019-04-28T08:49:24.008Z,11.00
2019-04-28T08:51:54.147Z,11.20
2019-04-28T08:54:24.347Z,11.40
2019-04-28T08:56:54.652Z,11.70
2019-04-28T08:59:24.824Z,11.40
2019-04-28T09:01:54.985Z,11.30
2019-04-28T09:04:25.220Z,11.40
2019-04-28T09:06:55.485Z,11.20
2019-04-28T09:09:25.687Z,11.10
2019-04-28T09:11:55.839Z,10.90
2019-04-28T09:14:26.029Z,11.00
2019-04-28T09:16:56.184Z,11.20
2019-04-28T09:19:26.344Z,11.50
2019-04-28T09:21:56.591Z,11.40
2019-04-28T09:24:26.789Z,11.30
2019-04-28T09:26:56.947Z,11.70
2019-04-28T09:29:27.137Z,12.40
2019-04-28T09:31:57.339Z,12.20
2019-04-28T09:34:28.452Z,12.10
2019-04-28T09:36:58.879Z,12.50
2019-04-28T09:39:45.879Z,12.40
2019-04-28T09:42:34.028Z,12.10
2019-04-28T09:45:05.743Z,11.90
2019-04-28T09:47:36.006Z,11.90
2019-04-28T09:50:07.725Z,11.90
2019-04-28T09:52:38.001Z,11.60
2019-04-28T09:55:08.459Z,11.30
2019-04-28T09:57:38.637Z,11.10
2019-04-28T10:00:20.441Z,10.80
2019-04-28T10:02:50.791Z,10.30
2019-04-28T10:05:21.016Z,10.10
2019-04-28T10:07:51.215Z,10.10
2019-04-28T10:10:21.423Z,9.90
2019-04-28T10:12:52.708Z,10.10
2019-04-28T10:15:22.919Z,10.20
2019-04-28T10:17:53.111Z,10.20
2019-04-28T10:20:23.420Z,10.40
2019-04-28T10:22:53.561Z,10.50
2019-04-28T10:25:23.764Z,11.00
2019-04-28T10:27:53.939Z,11.10
2019-04-28T10:30:24.192Z,10.80
2019-04-28T10:32:54.366Z,10.80
2019-04-28T10:35:24.664Z,11.10
2019-04-28T10:37:55.917Z,11.60
2019-04-28T10:40:46.700Z,12.10
2019-04-28T10:43:16.860Z,12.20
2019-04-28T10:45:48.529Z,12.70
2019-04-28T10:48:18.739Z,12.80
2019-04-28T10:50:48.877Z,12.80
2019-04-28T10:53:19.072Z,12.50
2019-04-28T10:55:49.363Z,12.20
2019-04-28T10:58:19.604Z,12.00
2019-04-28T11:00:49.760Z,11.60
2019-04-28T11:03:20.077Z,11.40
2019-04-28T11:05:50.293Z,11.30
2019-04-28T11:08:45.536Z,11.20
2019-04-28T11:11:24.665Z,11.30
2019-04-28T11:13:54.803Z,11.40
2019-04-28T11:16:29.074Z,11.60
2019-04-28T11:18:59.372Z,11.50
2019-04-28T11:21:29.533Z,11.50
2019-04-28T11:23:59.704Z,11.60
2019-04-28T11:26:31.085Z,11.70
2019-04-28T11:29:01.478Z,11.80
2019-04-28T11:31:31.790Z,11.80
2019-04-28T11:34:16.428Z,11.90
2019-04-28T11:36:46.705Z,11.80
2019-04-28T11:39:22.205Z,12.10
2019-04-28T11:41:53.844Z,11.90
2019-04-28T11:44:24.034Z,11.80
2019-04-28T11:46:54.185Z,11.30
2019-04-28T11:49:24.369Z,11.30
2019-04-28T11:51:54.510Z,11.50
2019-04-28T11:54:24.688Z,11.30
2019-04-28T11:56:54.924Z,11.10
2019-04-28T11:59:25.320Z,11.20
2019-04-28T12:01:55.602Z,11.20
2019-04-28T12:04:26.057Z,11.10
2019-04-28T12:06:56.254Z,11.20
2019-04-28T12:09:34.576Z,11.50
2019-04-28T12:12:08.696Z,11.70
2019-04-28T12:14:50.286Z,11.80
2019-04-28T12:17:34.967Z,11.90
2019-04-28T12:20:09.721Z,12.70
2019-04-28T12:22:40.995Z,14.10
2019-04-28T12:25:11.482Z,14.60
2019-04-28T12:27:41.763Z,15.10
2019-04-28T12:30:13.011Z,15.10
2019-04-28T12:32:45.764Z,15.80
2019-04-28T12:35:18.374Z,15.90
2019-04-28T12:37:47.795Z,15.70
2019-04-28T12:40:18.051Z,15.50
2019-04-28T12:42:48.253Z,14.80
2019-04-28T12:45:18.502Z,14.80
2019-04-28T12:47:48.718Z,14.20
2019-04-28T12:50:24.499Z,13.10
2019-04-28T12:52:54.651Z,12.50
2019-04-28T12:55:24.841Z,12.70
2019-04-28T12:57:55.027Z,12.70
2019-04-28T13:00:59.436Z,12.70
2019-04-28T13:03:46.343Z,12.40
2019-04-28T13:06:17.692Z,12.50
2019-04-28T13:08:48.868Z,12.80
2019-04-28T13:11:19.029Z,12.80
2019-04-28T13:13:49.327Z,12.90
2019-04-28T13:16:19.475Z,12.40
2019-04-28T13:18:49.693Z,12.40
2019-04-28T13:21:19.884Z,12.50
2019-04-28T13:23:50.204Z,12.70
2019-04-28T13:26:20.470Z,12.80
2019-04-28T13:28:50.687Z,12.60
2019-04-28T13:31:20.887Z,12.70
2019-04-28T13:33:56.254Z,12.60
2019-04-28T13:36:25.231Z,12.70
2019-04-28T13:38:57.211Z,12.60
2019-04-28T13:41:27.380Z,12.50
2019-04-28T13:43:57.549Z,12.40
2019-04-28T13:46:27.763Z,12.60
2019-04-28T13:48:58.026Z,12.60
2019-04-28T13:51:28.167Z,12.80
2019-04-28T13:53:58.992Z,13.00
2019-04-28T13:56:29.188Z,13.10
2019-04-28T13:59:08.683Z,13.00
2019-04-28T14:01:55.886Z,13.10
2019-04-28T14:04:42.913Z,13.00
2019-04-28T14:07:13.236Z,13.10
2019-04-28T14:09:43.608Z,13.10
2019-04-28T14:12:13.763Z,13.00
2019-04-28T14:14:45.900Z,12.80
2019-04-28T14:17:16.047Z,12.80
2019-04-28T14:19:46.215Z,12.80
2019-04-28T14:22:16.554Z,12.60
2019-04-28T14:24:46.796Z,12.50
2019-04-28T14:27:17.010Z,12.70
2019-04-28T14:29:47.261Z,12.80
2019-04-28T14:32:17.416Z,12.90
2019-04-28T14:34:47.716Z,13.00
2019-04-28T14:37:17.911Z,13.20
2019-04-28T14:39:48.043Z,13.30
2019-04-28T14:42:18.211Z,12.90
2019-04-28T14:44:48.390Z,12.80
2019-04-28T14:47:18.556Z,12.70
2019-04-28T14:49:48.741Z,12.60
2019-04-28T14:52:18.884Z,12.70
2019-04-28T14:54:49.097Z,12.70
2019-04-28T14:57:19.375Z,12.80
2019-04-28T14:59:49.584Z,13.00
2019-04-28T15:02:39.909Z,13.90
2019-04-28T15:05:30.856Z,14.60
2019-04-28T15:08:15.549Z,14.40
2019-04-28T15:11:16.660Z,14.60
2019-04-28T15:13:46.844Z,14.80
2019-04-28T15:16:17.121Z,14.50
2019-04-28T15:18:47.463Z,14.90
2019-04-28T15:21:17.995Z,15.20
2019-04-28T15:23:48.191Z,15.00
2019-04-28T15:26:18.372Z,14.70
2019-04-28T15:28:48.559Z,14.50
2019-04-28T15:31:18.727Z,14.20
2019-04-28T15:33:48.988Z,14.50
2019-04-28T15:36:19.162Z,14.80
2019-04-28T15:38:49.359Z,15.00
2019-04-28T15:41:21.705Z,15.10
2019-04-28T15:43:51.442Z,15.10
2019-04-28T15:46:21.641Z,15.20
2019-04-28T15:48:51.924Z,14.90
2019-04-28T15:51:22.207Z,14.50
2019-04-28T15:53:52.469Z,14.20
2019-04-28T15:56:29.380Z,14.30
2019-04-28T15:58:59.590Z,14.60
2019-04-28T16:01:29.747Z,14.50
2019-04-28T16:03:59.951Z,14.00
2019-04-28T16:06:30.117Z,13.60
2019-04-28T16:09:00.419Z,13.50
2019-04-28T16:11:31.324Z,13.50
2019-04-28T16:14:01.617Z,13.20
2019-04-28T16:16:31.987Z,13.00
2019-04-28T16:19:02.636Z,12.80
2019-04-28T16:21:32.979Z,12.70
2019-04-28T16:24:03.287Z,12.60
2019-04-28T16:26:33.607Z,12.50
2019-04-28T16:29:04.553Z,12.40
2019-04-28T16:31:35.442Z,12.30
2019-04-28T16:34:05.914Z,12.30
2019-04-28T16:36:36.301Z,12.30
2019-04-28T16:39:07.781Z,12.40
2019-04-28T16:41:40.867Z,12.30
2019-04-28T16:44:15.069Z,12.30
2019-04-28T16:46:45.321Z,12.40
2019-04-28T16:49:15.506Z,12.40
2019-04-28T16:51:45.679Z,12.40
2019-04-28T16:54:15.864Z,12.40
2019-04-28T16:56:52.708Z,12.50
2019-04-28T16:59:40.709Z,12.50
2019-04-28T17:02:34.658Z,12.40
2019-04-28T17:05:05.987Z,12.40
2019-04-28T17:07:36.289Z,12.40
2019-04-28T17:10:06.965Z,12.30
2019-04-28T17:12:37.244Z,12.30
2019-04-28T17:15:08.043Z,12.20
2019-04-28T17:17:38.454Z,12.20
2019-04-28T17:20:11.208Z,12.20
2019-04-28T17:22:41.355Z,12.20
2019-04-28T17:25:13.168Z,12.30
2019-04-28T17:27:43.475Z,12.40
2019-04-28T17:30:14.220Z,12.40
2019-04-28T17:32:44.738Z,12.40
2019-04-28T17:35:15.171Z,12.40
2019-04-28T17:37:45.445Z,12.40
2019-04-28T17:40:17.284Z,12.40
2019-04-28T17:42:47.567Z,12.40
2019-04-28T17:45:19.246Z,12.40
2019-04-28T17:47:50.771Z,12.40
2019-04-28T17:50:21.555Z,12.30
2019-04-28T17:52:51.789Z,12.30
2019-04-28T17:55:21.937Z,12.30
2019-04-28T17:57:52.179Z,12.30
2019-04-28T18:00:34.079Z,12.30
2019-04-28T18:03:23.079Z,12.30
2019-04-28T18:05:59.073Z,12.20
2019-04-28T18:08:29.280Z,12.20
2019-04-28T18:10:59.436Z,12.20
2019-04-28T18:13:29.639Z,12.10
2019-04-28T18:16:07.567Z,12.00
2019-04-28T18:18:40.610Z,12.00
2019-04-28T18:21:10.948Z,11.80
2019-04-28T18:23:41.196Z,11.70
2019-04-28T18:26:11.388Z,11.60
2019-04-28T18:28:41.612Z,11.40
2019-04-28T18:31:26.841Z,11.40
2019-04-28T18:34:16.097Z,11.30
2019-04-28T18:37:09.060Z,11.20
2019-04-28T18:39:57.307Z,11.10
2019-04-28T18:42:40.063Z,11.00
2019-04-28T18:45:10.591Z,10.80
2019-04-28T18:47:40.905Z,10.60
2019-04-28T18:50:12.954Z,10.50
2019-04-28T18:52:43.305Z,10.50
2019-04-28T18:55:13.672Z,10.50
2019-04-28T18:57:43.908Z,10.50
2019-04-28T19:00:14.571Z,10.40
2019-04-28T19:02:46.235Z,10.30
2019-04-28T19:05:17.792Z,10.20
2019-04-28T19:08:07.013Z,10.20
2019-04-28T19:11:02.649Z,10.20
2019-04-28T19:13:35.167Z,10.10
2019-04-28T19:16:27.411Z,10.00
2019-04-28T19:19:00.215Z,9.90
2019-04-28T19:21:30.607Z,9.80
2019-04-28T19:24:00.827Z,9.80
2019-04-28T19:26:31.048Z,9.80
2019-04-28T19:29:02.254Z,9.70
2019-04-28T19:31:32.471Z,9.60
2019-04-28T19:34:02.630Z,9.60
2019-04-28T19:36:32.972Z,9.60
2019-04-28T19:39:03.836Z,9.50
2019-04-28T19:41:35.757Z,9.40
2019-04-28T19:44:05.971Z,9.30
2019-04-28T19:46:36.244Z,9.20
2019-04-28T19:49:06.667Z,9.00
2019-04-28T19:51:36.908Z,8.90
2019-04-28T19:54:07.515Z,8.70
2019-04-28T19:56:55.547Z,8.70
2019-04-28T19:59:32.867Z,8.70
2019-04-28T20:02:04.108Z,8.50
2019-04-28T20:04:34.324Z,8.40
2019-04-28T20:07:04.641Z,8.40
2019-04-28T20:09:34.863Z,8.40
2019-04-28T20:12:05.078Z,8.50
2019-04-28T20:14:35.624Z,8.40
2019-04-28T20:17:05.989Z,8.40
2019-04-28T20:19:36.152Z,8.40
2019-04-28T20:22:06.416Z,8.40
2019-04-28T20:24:46.876Z,8.30
2019-04-28T20:27:08.657Z,8.30
2019-04-28T20:29:38.850Z,8.20
2019-04-28T20:32:09.079Z,8.20
2019-04-28T20:34:39.356Z,8.10
2019-04-28T20:37:23.630Z,8.00
2019-04-28T20:39:59.361Z,7.90
2019-04-28T20:42:48.185Z,7.70
2019-04-28T20:45:18.466Z,7.70
2019-04-28T20:47:48.738Z,7.60
2019-04-28T20:50:20.373Z,7.60
2019-04-28T20:52:50.628Z,7.60
2019-04-28T20:55:20.846Z,7.50
2019-04-28T20:57:50.993Z,7.50
2019-04-28T21:00:21.309Z,7.50
2019-04-28T21:02:51.615Z,7.50
2019-04-28T21:05:21.822Z,7.50
2019-04-28T21:07:51.987Z,7.30
2019-04-28T21:10:22.209Z,7.30
2019-04-28T21:12:52.439Z,7.10
2019-04-28T21:15:22.621Z,7.10
2019-04-28T21:17:52.779Z,7.10
2019-04-28T21:20:23.985Z,7.00
2019-04-28T21:22:54.189Z,7.00
2019-04-28T21:25:24.354Z,6.80
2019-04-28T21:27:54.635Z,6.90
2019-04-28T21:30:24.870Z,6.90
2019-04-28T21:32:55.056Z,7.00
2019-04-28T21:35:25.432Z,6.90
2019-04-28T21:37:55.612Z,7.00
2019-04-28T21:40:26.718Z,7.00
2019-04-28T21:43:10.379Z,7.00
2019-04-28T21:46:03.062Z,6.90
2019-04-28T21:48:41.787Z,6.90
2019-04-28T21:51:12.401Z,6.90
2019-04-28T21:53:42.708Z,6.90
2019-04-28T21:56:14.104Z,6.90
2019-04-28T21:58:44.261Z,6.90
2019-04-28T22:01:17.979Z,6.80
2019-04-28T22:03:49.511Z,6.70
2019-04-28T22:06:19.803Z,6.60
2019-04-28T22:08:49.957Z,6.50
2019-04-28T22:11:20.240Z,6.60
2019-04-28T22:13:50.422Z,6.60
2019-04-28T22:16:20.612Z,6.50
2019-04-28T22:18:50.788Z,6.50
2019-04-28T22:21:21.087Z,6.40
2019-04-28T22:24:10.201Z,6.40
2019-04-28T22:26:44.714Z,6.40
2019-04-28T22:29:15.367Z,6.30
2019-04-28T22:31:45.938Z,6.20
2019-04-28T22:34:16.107Z,6.10
2019-04-28T22:36:47.143Z,6.10
2019-04-28T22:39:17.321Z,6.00
2019-04-28T22:41:48.952Z,6.10
2019-04-28T22:44:19.140Z,6.10
2019-04-28T22:46:49.287Z,6.10
2019-04-28T22:49:19.648Z,6.00
2019-04-28T22:51:49.803Z,5.90
2019-04-28T22:54:26.443Z,5.80
2019-04-28T22:57:15.606Z,5.80
2019-04-28T22:59:45.811Z,5.90
2019-04-28T23:02:18.207Z,5.80
2019-04-28T23:05:13.656Z,5.70
2019-04-28T23:07:43.898Z,5.60
2019-04-28T23:10:14.304Z,5.70
2019-04-28T23:12:44.507Z,5.60
2019-04-28T23:15:14.699Z,5.50
2019-04-28T23:17:44.956Z,5.60
2019-04-28T23:20:15.428Z,5.50
2019-04-28T23:22:48.530Z,5.50
2019-04-28T23:25:18.830Z,5.50
2019-04-28T23:27:49.035Z,5.50
2019-04-28T23:30:44.751Z,5.50
2019-04-28T23:33:14.916Z,5.50
2019-04-28T23:35:46.066Z,5.50
2019-04-28T23:38:16.317Z,5.50
2019-04-28T23:40:56.226Z,5.50
2019-04-28T23:43:26.388Z,5.60
2019-04-28T23:45:56.616Z,5.50
2019-04-28T23:48:26.799Z,5.40
2019-04-28T23:51:04.155Z,5.40
2019-04-28T23:53:51.996Z,5.40
2019-04-28T23:56:22.155Z,5.40
2019-04-28T23:58:52.284Z,5.30
